Time;durP1;ratioP1;P1;durP2;ratioP2;P2;SDS_P1;SDS_P2;PMS_P1;PMS_P2;Temp;Humidity;BMP_temperature;BMP_pressure;BME280_temperature;BME280_humidity;BME280_pressure;Samples;Min_cycle;Max_cycle;Signal;HPM_P1;HPM_P2
2023/10/23 00:01:41;;;;;;;2.80;2.43;;;12.90;1.00;;;;;;5129191;27;21000;-74
2023/10/23 00:04:09;;;;;;;2.23;1.97;;;12.90;1.00;;;;;;5129868;27;20448;-75
2023/10/23 00:06:38;;;;;;;3.67;2.00;;;12.90;1.00;;;;;;5131398;27;21012;-74
2023/10/23 00:09:04;;;;;;;3.67;3.00;;;12.90;1.00;;;;;;5129909;27;20469;-75
2023/10/23 00:11:32;;;;;;;4.60;2.07;;;12.90;1.00;;;;;;5128071;27;20458;-75
2023/10/23 00:13:59;;;;;;;3.23;2.37;;;12.90;1.00;;;;;;5143647;27;20464;-76
2023/10/23 00:16:26;;;;;;;2.40;2.20;;;12.80;1.00;;;;;;5145158;27;20549;-75
2023/10/23 00:18:53;;;;;;;2.90;2.70;;;12.70;1.00;;;;;;5139852;27;20443;-74
2023/10/23 00:21:20;;;;;;;2.90;2.03;;;12.70;1.00;;;;;;5139752;27;20491;-76
2023/10/23 00:23:49;;;;;;;3.23;2.40;;;12.60;1.00;;;;;;5126729;27;21006;-76
2023/10/23 00:26:17;;;;;;;3.10;2.70;;;12.60;1.00;;;;;;5126367;27;20955;-74
2023/10/23 00:28:44;;;;;;;3.07;2.10;;;12.60;1.00;;;;;;5144699;27;20462;-69
2023/10/23 00:31:11;;;;;;;2.90;2.60;;;12.60;1.00;;;;;;5126413;27;20497;-70
2023/10/23 00:33:38;;;;;;;4.10;2.40;;;12.60;1.00;;;;;;5129565;27;20582;-71
2023/10/23 00:36:05;;;;;;;3.00;2.17;;;12.60;1.00;;;;;;5143576;27;20519;-69
2023/10/23 00:38:32;;;;;;;3.20;2.73;;;12.50;1.00;;;;;;5146011;27;20924;-72
2023/10/23 00:41:00;;;;;;;7.50;2.60;;;12.40;1.00;;;;;;5148800;27;23045;-72
2023/10/23 00:43:28;;;;;;;4.13;2.37;;;12.30;1.00;;;;;;5129324;27;20561;-68
2023/10/23 00:45:57;;;;;;;2.43;2.00;;;12.30;1.00;;;;;;5127981;27;20477;-68
2023/10/23 00:48:25;;;;;;;2.73;2.17;;;12.30;1.00;;;;;;5144115;27;20972;-70
2023/10/23 00:50:56;;;;;;;2.90;2.70;;;12.20;1.00;;;;;;5129138;27;20527;-73
2023/10/23 00:53:25;;;;;;;3.50;2.67;;;12.20;1.00;;;;;;5130328;27;20467;-69
2023/10/23 00:55:53;;;;;;;3.57;3.20;;;12.20;1.00;;;;;;5148543;27;21166;-68
2023/10/23 00:58:25;;;;;;;4.47;2.80;;;12.10;1.00;;;;;;5147127;27;20525;-69
2023/10/23 01:00:53;;;;;;;4.00;2.70;;;12.00;1.00;;;;;;5144391;27;20457;-69
2023/10/23 01:03:20;;;;;;;3.70;2.80;;;11.80;1.00;;;;;;5129462;27;20499;-70
2023/10/23 01:05:47;;;;;;;3.63;2.90;;;11.80;1.00;;;;;;5130423;27;20617;-70
2023/10/23 01:08:14;;;;;;;3.40;3.10;;;11.70;1.00;;;;;;5129879;27;20483;-72
2023/10/23 01:10:41;;;;;;;3.20;2.90;;;11.70;1.00;;;;;;5123051;27;20457;-72
2023/10/23 01:13:08;;;;;;;4.43;3.27;;;11.70;1.00;;;;;;5125765;27;21082;-71
2023/10/23 01:15:37;;;;;;;3.67;3.00;;;11.70;1.00;;;;;;5127592;27;20469;-69
2023/10/23 01:18:04;;;;;;;6.90;5.37;;;11.60;1.00;;;;;;5129749;27;20545;-67
2023/10/23 01:20:32;;;;;;;5.30;3.30;;;11.50;1.00;;;;;;5126992;27;20449;-69
2023/10/23 01:23:01;;;;;;;5.13;3.07;;;11.50;1.00;;;;;;5124888;27;20458;-69
2023/10/23 01:25:29;;;;;;;3.47;2.90;;;11.50;1.00;;;;;;5147350;27;20460;-68
2023/10/23 01:27:56;;;;;;;2.50;2.30;;;11.40;1.00;;;;;;5137882;27;20530;-68
2023/10/23 01:30:23;;;;;;;4.23;3.50;;;11.40;1.00;;;;;;5136753;27;20483;-74
2023/10/23 01:32:50;;;;;;;4.10;3.43;;;11.40;1.00;;;;;;5129960;27;20461;-72
2023/10/23 01:35:17;;;;;;;3.53;3.10;;;11.40;1.00;;;;;;5142041;27;20452;-70
2023/10/23 01:37:45;;;;;;;3.37;2.80;;;11.40;1.00;;;;;;5128357;27;20518;-70
2023/10/23 01:40:13;;;;;;;3.50;3.20;;;11.30;1.00;;;;;;5128073;27;20529;-76
2023/10/23 01:42:41;;;;;;;4.50;3.37;;;11.20;1.00;;;;;;5127554;27;20445;-74
2023/10/23 01:45:09;;;;;;;3.90;2.87;;;11.10;1.00;;;;;;5128265;27;20480;-75
2023/10/23 01:47:36;;;;;;;4.97;2.80;;;11.00;1.00;;;;;;5127156;27;20477;-73
2023/10/23 01:50:03;;;;;;;4.40;3.03;;;11.00;1.00;;;;;;5143979;27;20482;-75
2023/10/23 01:52:30;;;;;;;3.30;2.87;;;10.80;1.00;;;;;;5137785;27;21201;-74
2023/10/23 01:54:59;;;;;;;3.20;2.83;;;10.80;1.00;;;;;;5142462;27;21412;-72
2023/10/23 01:57:26;;;;;;;3.37;3.00;;;10.80;1.00;;;;;;5138267;27;20543;-74
2023/10/23 01:59:54;;;;;;;9.50;7.13;;;10.80;1.00;;;;;;5133843;27;20957;-73
2023/10/23 02:02:21;;;;;;;3.60;3.20;;;10.70;1.00;;;;;;5135890;27;20459;-71
2023/10/23 02:04:48;;;;;;;4.13;2.97;;;10.70;1.00;;;;;;5146345;27;20532;-75
2023/10/23 02:07:15;;;;;;;14.10;4.10;;;10.70;1.00;;;;;;5127862;27;21068;-75
2023/10/23 02:09:42;;;;;;;4.03;3.63;;;10.70;1.00;;;;;;5127063;27;20452;-74
2023/10/23 02:12:09;;;;;;;3.40;3.10;;;10.60;1.00;;;;;;5123995;27;21043;-74
2023/10/23 02:14:36;;;;;;;5.27;4.10;;;10.60;1.00;;;;;;5130648;27;20503;-75
2023/10/23 02:17:04;;;;;;;4.07;3.67;;;10.60;1.00;;;;;;5148317;27;20523;-77
2023/10/23 02:19:32;;;;;;;4.47;3.80;;;10.60;1.00;;;;;;5127228;27;20449;-76
2023/10/23 02:21:59;;;;;;;5.70;4.33;;;10.50;1.00;;;;;;5129987;27;20537;-75
2023/10/23 02:24:25;;;;;;;5.70;3.50;;;10.60;1.00;;;;;;5138322;27;20464;-75
2023/10/23 02:26:54;;;;;;;4.33;3.77;;;10.60;1.00;;;;;;5132750;27;20543;-75
2023/10/23 02:29:21;;;;;;;6.87;3.50;;;10.70;1.00;;;;;;5145227;27;20468;-74
2023/10/23 02:31:49;;;;;;;4.70;4.20;;;10.60;1.00;;;;;;5123984;27;20456;-73
2023/10/23 02:34:17;;;;;;;3.90;3.50;;;10.60;1.00;;;;;;5136840;27;20480;-75
2023/10/23 02:36:44;;;;;;;3.93;3.53;;;10.70;1.00;;;;;;5132492;27;20912;-75
2023/10/23 02:39:11;;;;;;;4.03;3.63;;;10.70;1.00;;;;;;5124281;27;20455;-73
2023/10/23 02:41:38;;;;;;;3.70;3.27;;;10.70;1.00;;;;;;5126955;27;20485;-75
2023/10/23 02:44:05;;;;;;;5.63;4.43;;;10.70;1.00;;;;;;5126033;27;21107;-76
2023/10/23 02:46:34;;;;;;;5.77;3.53;;;10.70;1.00;;;;;;5124910;27;20926;-73
2023/10/23 02:49:01;;;;;;;4.23;3.83;;;10.70;1.00;;;;;;5125945;27;20477;-74
2023/10/23 02:51:29;;;;;;;6.60;3.87;;;10.60;1.00;;;;;;5127694;27;20471;-75
2023/10/23 02:53:56;;;;;;;9.60;5.30;;;10.60;1.00;;;;;;5143139;27;20472;-72
2023/10/23 02:56:23;;;;;;;4.90;4.40;;;10.60;1.00;;;;;;5123641;27;20461;-73
2023/10/23 02:58:50;;;;;;;4.97;4.17;;;10.60;1.00;;;;;;5126808;27;20491;-75
2023/10/23 03:01:19;;;;;;;4.93;4.43;;;10.60;1.00;;;;;;5127928;27;20457;-74
2023/10/23 03:03:47;;;;;;;5.03;4.53;;;10.60;1.00;;;;;;5125040;27;21025;-73
2023/10/23 03:06:15;;;;;;;5.03;4.27;;;10.60;1.00;;;;;;5125219;27;20457;-75
2023/10/23 03:08:44;;;;;;;6.00;4.67;;;10.60;1.00;;;;;;5127218;27;20461;-74
2023/10/23 03:11:11;;;;;;;5.53;3.80;;;10.60;1.00;;;;;;5128107;27;20860;-73
2023/10/23 03:13:38;;;;;;;6.63;4.90;;;10.60;1.00;;;;;;5140728;27;20544;-73
2023/10/23 03:16:05;;;;;;;5.20;4.23;;;10.60;1.00;;;;;;5122677;27;20421;-74
2023/10/23 03:18:32;;;;;;;6.73;4.90;;;10.60;1.00;;;;;;5124395;27;21089;-76
2023/10/23 03:21:00;;;;;;;5.13;4.60;;;10.60;1.00;;;;;;5139234;27;20620;-76
2023/10/23 03:23:28;;;;;;;14.27;10.20;;;10.60;1.00;;;;;;5144755;27;20508;-72
2023/10/23 03:25:56;;;;;;;6.80;5.03;;;10.60;1.00;;;;;;5125810;27;20492;-73
2023/10/23 03:28:23;;;;;;;4.30;3.77;;;10.60;1.00;;;;;;5127856;27;20612;-73
2023/10/23 03:30:50;;;;;;;4.63;4.03;;;10.50;1.00;;;;;;5141551;27;20535;-73
2023/10/23 03:33:17;;;;;;;4.57;4.17;;;10.60;1.00;;;;;;5127704;27;20464;-73
2023/10/23 03:35:44;;;;;;;5.17;4.67;;;10.60;1.00;;;;;;5130887;27;20448;-74
2023/10/23 03:38:13;;;;;;;6.80;5.43;;;10.50;1.00;;;;;;5145079;27;21203;-73
2023/10/23 03:40:40;;;;;;;6.47;5.00;;;10.40;1.00;;;;;;5126881;27;20527;-73
2023/10/23 03:43:08;;;;;;;6.93;5.73;;;10.30;1.00;;;;;;5128210;27;20500;-74
2023/10/23 03:45:37;;;;;;;10.03;5.40;;;10.20;1.00;;;;;;5127854;27;20468;-73
2023/10/23 03:48:05;;;;;;;4.63;4.23;;;10.10;1.00;;;;;;5137079;27;21146;-73
2023/10/23 03:50:37;;;;;;;6.43;5.67;;;10.10;1.00;;;;;;5149111;27;20463;-72
2023/10/23 03:53:04;;;;;;;6.53;5.10;;;10.10;1.00;;;;;;5134202;27;20492;-74
2023/10/23 03:55:31;;;;;;;6.10;5.03;;;10.00;1.00;;;;;;5128765;27;20568;-74
2023/10/23 03:57:58;;;;;;;6.43;5.30;;;10.00;1.00;;;;;;5130506;27;20650;-77
2023/10/23 04:00:29;;;;;;;4.83;4.33;;;10.00;1.00;;;;;;5127478;27;20448;-69
2023/10/23 04:02:56;;;;;;;6.97;5.37;;;10.10;1.00;;;;;;5130359;27;20884;-69
2023/10/23 04:05:23;;;;;;;6.33;5.50;;;10.00;1.00;;;;;;5140742;27;20467;-70
2023/10/23 04:07:50;;;;;;;6.97;5.80;;;10.10;1.00;;;;;;5129654;27;20913;-68
2023/10/23 04:10:17;;;;;;;5.30;4.90;;;10.10;1.00;;;;;;5126766;27;20456;-70
2023/10/23 04:12:44;;;;;;;7.00;6.17;;;10.20;1.00;;;;;;5127466;27;21053;-69
2023/10/23 04:15:11;;;;;;;5.80;5.30;;;10.20;1.00;;;;;;5125014;27;20449;-72
2023/10/23 04:17:39;;;;;;;4.93;4.50;;;10.00;1.00;;;;;;5137509;27;20451;-70
2023/10/23 04:20:08;;;;;;;7.07;5.60;;;10.00;1.00;;;;;;5143633;27;20956;-72
2023/10/23 04:22:35;;;;;;;10.07;6.27;;;9.90;1.00;;;;;;5127619;27;20457;-69
2023/10/23 04:25:02;;;;;;;5.73;5.10;;;9.80;1.00;;;;;;5125888;27;22612;-69
2023/10/23 04:27:29;;;;;;;9.20;7.60;;;9.80;1.00;;;;;;5128663;27;20464;-69
2023/10/23 04:29:59;;;;;;;6.80;5.37;;;9.80;1.00;;;;;;5149651;27;20490;-69
2023/10/23 04:32:26;;;;;;;11.60;6.43;;;9.80;1.00;;;;;;5138432;27;20495;-70
2023/10/23 04:34:54;;;;;;;7.53;5.90;;;9.80;1.00;;;;;;5128793;27;20445;-70
2023/10/23 04:37:21;;;;;;;6.77;6.17;;;9.70;1.00;;;;;;5144263;27;20559;-70
2023/10/23 04:39:48;;;;;;;6.37;5.77;;;9.60;1.00;;;;;;5126893;27;20540;-69
2023/10/23 04:42:15;;;;;;;11.10;6.07;;;9.70;1.00;;;;;;5123984;27;20562;-71
2023/10/23 04:44:42;;;;;;;8.33;7.53;;;9.70;1.00;;;;;;5127869;27;20515;-69
2023/10/23 04:47:09;;;;;;;11.27;7.00;;;9.60;1.00;;;;;;5128349;27;20554;-69
2023/10/23 04:49:36;;;;;;;9.73;8.73;;;9.60;1.00;;;;;;5127719;27;20480;-70
2023/10/23 04:52:05;;;;;;;14.20;10.13;;;9.60;1.00;;;;;;5128082;27;20986;-69
2023/10/23 04:54:32;;;;;;;10.17;8.57;;;9.60;1.00;;;;;;5135746;27;21246;-71
2023/10/23 04:56:59;;;;;;;11.33;8.43;;;9.70;1.00;;;;;;5137455;27;20461;-72
2023/10/23 04:59:26;;;;;;;8.17;6.33;;;9.70;1.00;;;;;;5137118;27;20889;-68
2023/10/23 05:01:53;;;;;;;10.80;9.60;;;9.80;1.00;;;;;;5125402;27;20469;-70
2023/10/23 05:04:20;;;;;;;9.07;7.43;;;9.80;1.00;;;;;;5126619;27;20453;-70
2023/10/23 05:06:46;;;;;;;7.50;6.80;;;9.80;1.00;;;;;;5129351;27;20547;-69
2023/10/23 05:09:15;;;;;;;8.20;7.27;;;9.80;1.00;;;;;;5125871;27;20473;-77
2023/10/23 05:11:42;;;;;;;17.17;11.53;;;9.90;1.00;;;;;;5129358;27;20568;-72
2023/10/23 05:14:09;;;;;;;7.23;6.53;;;9.80;1.00;;;;;;5126635;27;20459;-77
2023/10/23 05:16:37;;;;;;;8.17;6.30;;;9.80;1.00;;;;;;5126955;27;20646;-74
2023/10/23 05:19:04;;;;;;;10.70;7.60;;;9.80;1.00;;;;;;5124776;27;20461;-74
2023/10/23 05:21:31;;;;;;;8.50;7.47;;;9.80;1.00;;;;;;5125923;27;20473;-74
2023/10/23 05:23:58;;;;;;;7.60;6.80;;;9.80;1.00;;;;;;5126443;27;20542;-74
2023/10/23 05:26:26;;;;;;;11.77;9.20;;;9.80;1.00;;;;;;5127141;27;20624;-73
2023/10/23 05:28:54;;;;;;;8.13;7.40;;;9.70;1.00;;;;;;5126794;27;20972;-74
2023/10/23 05:31:21;;;;;;;11.20;10.20;;;9.70;1.00;;;;;;5132290;27;20465;-76
2023/10/23 05:33:49;;;;;;;11.10;8.00;;;9.60;1.00;;;;;;5128451;27;20540;-75
2023/10/23 05:36:16;;;;;;;13.10;8.20;;;9.60;1.00;;;;;;5125040;27;20464;-74
2023/10/23 05:38:43;;;;;;;8.70;7.90;;;9.60;1.00;;;;;;5127562;27;21701;-75
2023/10/23 05:41:09;;;;;;;8.10;7.00;;;9.50;1.00;;;;;;5126163;27;20468;-75
2023/10/23 05:43:38;;;;;;;13.27;8.33;;;9.50;1.00;;;;;;5127295;27;21142;-75
2023/10/23 05:46:05;;;;;;;8.90;8.10;;;9.40;1.00;;;;;;5148283;27;20483;-75
2023/10/23 05:48:33;;;;;;;7.57;6.87;;;9.40;1.00;;;;;;5147082;27;20562;-77
2023/10/23 05:51:01;;;;;;;8.30;6.77;;;9.30;1.00;;;;;;5147152;27;20479;-72
2023/10/23 05:53:28;;;;;;;9.63;8.63;;;9.30;1.00;;;;;;5142622;27;20472;-74
2023/10/23 05:56:00;;;;;;;10.97;8.90;;;9.30;1.00;;;;;;5135876;27;20603;-75
2023/10/23 05:58:27;;;;;;;15.03;10.90;;;9.30;1.00;;;;;;5125402;27;21277;-73
2023/10/23 06:00:55;;;;;;;15.00;11.67;;;9.30;1.00;;;;;;5142150;27;21349;-74
2023/10/23 06:03:22;;;;;;;12.30;8.27;;;9.30;1.00;;;;;;5148838;27;20452;-75
2023/10/23 06:05:49;;;;;;;9.30;8.40;;;9.30;1.00;;;;;;5143548;27;20911;-75
2023/10/23 06:08:16;;;;;;;11.10;9.90;;;9.40;1.00;;;;;;5125005;27;21123;-76
2023/10/23 06:10:43;;;;;;;12.63;10.77;;;9.50;1.00;;;;;;5126427;27;20489;-74
2023/10/23 06:13:11;;;;;;;14.40;10.13;;;9.60;1.00;;;;;;5125857;27;20557;-74
2023/10/23 06:15:38;;;;;;;10.10;8.23;;;9.60;1.00;;;;;;5128697;27;20452;-75
2023/10/23 06:18:07;;;;;;;10.63;9.20;;;9.60;1.00;;;;;;5138795;27;20468;-74
2023/10/23 06:20:35;;;;;;;11.03;7.90;;;9.70;1.00;;;;;;5129821;27;20459;-72
2023/10/23 06:23:03;;;;;;;9.30;8.43;;;9.80;1.00;;;;;;5131334;27;20496;-71
2023/10/23 06:25:30;;;;;;;15.13;9.00;;;9.90;1.00;;;;;;5134605;27;21633;-69
2023/10/23 06:27:57;;;;;;;8.40;7.33;;;10.00;1.00;;;;;;5129781;27;20536;-69
2023/10/23 06:30:24;;;;;;;13.50;10.60;;;10.00;1.00;;;;;;5132754;27;20501;-70
2023/10/23 06:32:51;;;;;;;9.53;6.87;;;10.20;1.00;;;;;;5129938;27;20463;-73
2023/10/23 06:35:19;;;;;;;10.90;7.60;;;10.30;1.00;;;;;;5146187;27;20463;-68
2023/10/23 06:37:48;;;;;;;9.77;8.70;;;10.30;1.00;;;;;;5147742;27;20487;-71
2023/10/23 06:40:15;;;;;;;9.17;8.07;;;10.30;1.00;;;;;;5137711;27;20480;-69
2023/10/23 06:42:42;;;;;;;8.13;7.37;;;10.40;1.00;;;;;;5131214;27;21156;-68
2023/10/23 06:45:09;;;;;;;10.00;8.60;;;10.30;1.00;;;;;;5133252;27;20448;-68
2023/10/23 06:47:37;;;;;;;9.33;8.30;;;10.40;1.00;;;;;;5144543;27;20508;-71
2023/10/23 06:50:05;;;;;;;9.43;8.57;;;10.40;1.00;;;;;;5148573;27;20475;-72
2023/10/23 06:52:33;;;;;;;8.93;8.03;;;10.40;1.00;;;;;;5135331;27;20449;-70
2023/10/23 06:55:00;;;;;;;9.57;8.50;;;10.40;1.00;;;;;;5146314;27;20538;-69
2023/10/23 06:57:27;;;;;;;12.10;9.53;;;10.40;1.00;;;;;;5134078;27;20463;-69
2023/10/23 06:59:55;;;;;;;10.60;9.57;;;10.50;1.00;;;;;;5143236;27;20534;-69
2023/10/23 07:02:23;;;;;;;10.23;9.23;;;10.60;1.00;;;;;;5146272;27;20463;-71
2023/10/23 07:04:49;;;;;;;12.10;10.10;;;10.70;1.00;;;;;;5136941;27;20550;-70
2023/10/23 07:07:16;;;;;;;10.23;8.80;;;10.80;1.00;;;;;;5147509;27;20463;-69
2023/10/23 07:09:45;;;;;;;12.93;9.70;;;10.90;1.00;;;;;;5152292;27;20542;-69
2023/10/23 07:12:12;;;;;;;13.20;8.57;;;11.00;1.00;;;;;;5150567;27;20447;-74
2023/10/23 07:14:39;;;;;;;11.47;10.07;;;11.10;1.00;;;;;;5152272;27;20857;-72
2023/10/23 07:17:06;;;;;;;10.83;9.13;;;11.20;1.00;;;;;;5149124;27;20544;-69
2023/10/23 07:19:33;;;;;;;10.30;9.10;;;11.20;1.00;;;;;;5150610;27;20993;-70
2023/10/23 07:22:00;;;;;;;9.60;8.57;;;11.30;1.00;;;;;;5151080;27;21040;-70
2023/10/23 07:24:27;;;;;;;9.47;8.57;;;11.50;1.00;;;;;;5149376;27;20460;-70
2023/10/23 07:26:55;;;;;;;10.33;9.20;;;11.60;1.00;;;;;;5148621;27;20505;-69
2023/10/23 07:29:22;;;;;;;14.03;9.23;;;11.40;1.00;;;;;;5138287;27;20545;-70
2023/10/23 07:31:49;;;;;;;9.93;9.03;;;11.40;1.00;;;;;;5131119;27;20519;-70
2023/10/23 07:34:16;;;;;;;12.47;9.80;;;11.50;1.00;;;;;;5147272;27;21133;-70
2023/10/23 07:36:43;;;;;;;10.20;9.30;;;11.70;1.00;;;;;;5150226;27;20451;-70
2023/10/23 07:39:10;;;;;;;9.10;8.37;;;11.70;1.00;;;;;;5137783;27;20476;-74
2023/10/23 07:41:37;;;;;;;12.27;9.20;;;11.90;1.00;;;;;;5132285;27;20452;-70
2023/10/23 07:44:06;;;;;;;9.27;8.37;;;12.10;1.00;;;;;;5151436;27;20556;-69
2023/10/23 07:46:33;;;;;;;9.73;8.87;;;12.20;1.00;;;;;;5149817;27;21070;-70
2023/10/23 07:49:00;;;;;;;8.43;7.60;;;12.40;1.00;;;;;;5133045;27;20564;-69
2023/10/23 07:51:28;;;;;;;9.03;8.13;;;12.40;1.00;;;;;;5127569;27;21308;-72
2023/10/23 07:53:55;;;;;;;11.73;8.23;;;12.40;1.00;;;;;;5127519;27;20518;-69
2023/10/23 07:56:22;;;;;;;15.73;8.63;;;12.50;1.00;;;;;;5138559;27;20551;-69
2023/10/23 07:58:51;;;;;;;10.50;7.80;;;12.50;1.00;;;;;;5133193;27;20560;-71
2023/10/23 08:01:20;;;;;;;10.97;9.00;;;12.50;1.00;;;;;;5125644;27;20469;-75
2023/10/23 08:03:47;;;;;;;10.53;7.77;;;12.60;1.00;;;;;;5141354;27;20961;-69
2023/10/23 08:06:15;;;;;;;8.73;7.83;;;12.60;1.00;;;;;;5130069;27;20458;-71
2023/10/23 08:08:44;;;;;;;9.23;8.33;;;12.70;1.00;;;;;;5135975;27;20493;-70
2023/10/23 08:11:13;;;;;;;10.80;8.60;;;12.80;1.00;;;;;;5146872;27;20469;-69
2023/10/23 08:13:40;;;;;;;10.80;8.60;;;12.90;1.00;;;;;;5145869;27;21368;-71
2023/10/23 08:16:07;;;;;;;9.50;8.60;;;12.90;1.00;;;;;;5149490;27;20588;-70
2023/10/23 08:18:36;;;;;;;9.10;8.20;;;13.00;1.00;;;;;;5148078;27;20470;-69
2023/10/23 08:21:09;;;;;;;10.17;8.80;;;13.10;1.00;;;;;;5131604;27;20536;-69
2023/10/23 08:23:36;;;;;;;14.40;8.10;;;13.30;1.00;;;;;;5129078;27;21293;-70
2023/10/23 08:26:04;;;;;;;12.33;9.40;;;13.40;1.00;;;;;;5135758;27;20477;-70
2023/10/23 08:28:31;;;;;;;16.93;10.90;;;13.40;1.00;;;;;;5148502;27;21613;-71
2023/10/23 08:30:58;;;;;;;18.13;10.43;;;13.60;1.00;;;;;;5141558;27;20549;-71
2023/10/23 08:33:25;;;;;;;10.67;9.10;;;13.70;1.00;;;;;;5123910;27;20506;-71
2023/10/23 08:35:54;;;;;;;10.73;8.93;;;13.70;1.00;;;;;;5127189;27;20866;-69
2023/10/23 08:38:20;;;;;;;10.10;9.13;;;13.70;1.00;;;;;;5134952;27;20593;-69
2023/10/23 08:40:49;;;;;;;13.90;10.10;;;13.70;1.00;;;;;;5141341;27;20493;-71
2023/10/23 08:43:15;;;;;;;11.50;9.53;;;13.70;1.00;;;;;;5138626;27;20470;-70
2023/10/23 08:45:43;;;;;;;10.73;9.00;;;13.80;1.00;;;;;;5145254;27;20453;-70
2023/10/23 08:48:10;;;;;;;10.60;9.50;;;13.80;1.00;;;;;;5131547;27;20985;-69
2023/10/23 08:50:40;;;;;;;11.23;10.00;;;13.90;1.00;;;;;;5128036;27;20547;-72
2023/10/23 08:53:11;;;;;;;13.70;9.67;;;13.90;1.00;;;;;;5125015;27;20465;-71
2023/10/23 08:55:38;;;;;;;9.23;8.20;;;13.90;1.00;;;;;;5127500;27;20541;-69
2023/10/23 08:58:06;;;;;;;17.17;9.53;;;13.80;1.00;;;;;;5143290;27;20555;-68
2023/10/23 09:00:33;;;;;;;9.93;9.03;;;13.90;1.00;;;;;;5135275;27;20459;-74
2023/10/23 09:03:01;;;;;;;9.13;8.17;;;14.10;1.00;;;;;;5125678;27;20518;-71
2023/10/23 09:05:28;;;;;;;10.40;9.30;;;14.30;1.00;;;;;;5126470;27;20494;-69
2023/10/23 09:07:56;;;;;;;10.20;9.30;;;14.40;1.00;;;;;;5141753;27;20459;-68
2023/10/23 09:10:26;;;;;;;10.20;7.90;;;14.50;1.00;;;;;;5127254;27;20447;-71
2023/10/23 09:12:57;;;;;;;13.23;8.93;;;14.60;1.00;;;;;;5132973;27;20451;-68
2023/10/23 09:15:24;;;;;;;10.93;8.77;;;14.60;1.00;;;;;;5145191;27;20526;-68
2023/10/23 09:17:53;;;;;;;9.10;8.30;;;14.60;1.00;;;;;;5126016;27;21061;-68
2023/10/23 09:20:25;;;;;;;9.50;8.60;;;14.80;1.00;;;;;;5134887;27;20802;-69
2023/10/23 09:22:52;;;;;;;11.63;9.23;;;14.90;1.00;;;;;;5143216;27;20590;-69
2023/10/23 09:25:21;;;;;;;16.83;10.03;;;15.00;1.00;;;;;;5127909;27;20446;-70
2023/10/23 09:27:50;;;;;;;9.50;8.63;;;15.20;1.00;;;;;;5143829;27;20563;-71
2023/10/23 09:30:21;;;;;;;11.53;8.40;;;15.40;1.00;;;;;;5126824;27;20457;-70
2023/10/23 09:32:53;;;;;;;10.30;8.50;;;15.60;1.00;;;;;;5128473;27;20464;-70
2023/10/23 09:35:20;;;;;;;11.07;9.60;;;15.80;1.00;;;;;;5126351;27;21065;-70
2023/10/23 09:37:47;;;;;;;10.43;9.43;;;15.90;1.00;;;;;;5129701;27;20556;-69
2023/10/23 09:40:17;;;;;;;11.70;10.50;;;16.00;1.00;;;;;;5145282;27;20524;-68
2023/10/23 09:42:44;;;;;;;11.53;9.13;;;16.10;1.00;;;;;;5139215;27;21189;-72
2023/10/23 09:45:15;;;;;;;9.60;8.67;;;16.20;1.00;;;;;;5140238;27;21043;-68
2023/10/23 09:47:42;;;;;;;10.73;9.70;;;16.30;1.00;;;;;;5122516;27;20547;-73
2023/10/23 09:50:10;;;;;;;9.20;8.20;;;16.40;1.00;;;;;;5123436;27;21083;-72
2023/10/23 09:52:37;;;;;;;11.90;10.53;;;16.40;1.00;;;;;;5124512;27;20607;-71
2023/10/23 09:55:07;;;;;;;12.10;10.17;;;16.30;1.00;;;;;;5126371;27;20472;-72
2023/10/23 09:57:36;;;;;;;11.73;10.53;;;16.20;1.00;;;;;;5126505;27;20550;-70
2023/10/23 10:00:12;;;;;;;11.90;10.80;;;16.20;1.00;;;;;;5129247;27;20540;-70
2023/10/23 10:02:44;;;;;;;14.83;10.73;;;16.50;1.00;;;;;;5125708;27;20461;-69
2023/10/23 10:05:15;;;;;;;11.30;10.13;;;17.00;1.00;;;;;;5125737;27;20480;-70
2023/10/23 10:07:51;;;;;;;13.30;10.47;;;17.30;1.00;;;;;;5127419;27;20581;-69
2023/10/23 10:10:18;;;;;;;9.10;8.30;;;17.50;1.00;;;;;;5125390;27;20950;-71
2023/10/23 10:12:47;;;;;;;8.63;7.50;;;17.70;1.00;;;;;;5121092;27;20514;-70
2023/10/23 10:15:15;;;;;;;7.93;7.10;;;17.80;1.00;;;;;;5134993;27;20477;-74
2023/10/23 10:17:44;;;;;;;8.50;7.70;;;17.70;1.00;;;;;;5125134;27;20962;-71
2023/10/23 10:20:11;;;;;;;8.77;7.77;;;17.80;1.00;;;;;;5146752;27;20454;-70
2023/10/23 10:22:41;;;;;;;8.63;7.20;;;18.00;1.00;;;;;;5134726;27;20487;-70
2023/10/23 10:25:11;;;;;;;11.20;7.07;;;18.20;1.00;;;;;;5132079;27;20545;-70
2023/10/23 10:27:38;;;;;;;6.70;6.17;;;18.30;1.00;;;;;;5126247;27;20981;-70
2023/10/23 10:30:27;;;;;;;6.73;5.90;;;18.50;1.00;;;;;;5135277;27;20465;-70
2023/10/23 10:33:01;;;;;;;5.50;5.00;;;18.90;1.00;;;;;;5133034;27;20457;-70
2023/10/23 10:35:28;;;;;;;7.40;6.03;;;19.10;1.00;;;;;;5145909;27;20539;-72
2023/10/23 10:38:00;;;;;;;7.10;6.40;;;19.40;1.00;;;;;;5126965;27;20471;-70
2023/10/23 10:40:27;;;;;;;5.97;5.50;;;19.50;1.00;;;;;;5125232;27;20471;-71
2023/10/23 10:43:09;;;;;;;8.47;6.40;;;19.60;1.00;;;;;;5132366;27;20512;-70
2023/10/23 10:45:43;;;;;;;7.87;5.87;;;19.50;1.00;;;;;;5137067;27;20454;-72
2023/10/23 10:48:12;;;;;;;6.53;5.93;;;19.50;1.00;;;;;;5124541;27;21047;-71
2023/10/23 10:50:40;;;;;;;7.60;6.87;;;19.50;1.00;;;;;;5127908;27;20444;-71
2023/10/23 10:53:08;;;;;;;7.80;6.53;;;19.40;1.00;;;;;;5125165;27;20520;-69
2023/10/23 10:55:37;;;;;;;7.77;7.00;;;19.50;1.00;;;;;;5122753;27;20471;-70
2023/10/23 10:58:05;;;;;;;6.30;5.70;;;19.60;1.00;;;;;;5126934;27;20466;-71
2023/10/23 11:00:33;;;;;;;7.07;6.20;;;20.00;1.00;;;;;;5136165;27;20539;-70
2023/10/23 11:03:00;;;;;;;7.67;6.10;;;20.30;1.00;;;;;;5139189;27;20493;-71
2023/10/23 11:05:28;;;;;;;11.90;11.00;;;20.30;1.00;;;;;;5148969;27;20449;-72
2023/10/23 11:07:55;;;;;;;7.23;6.33;;;20.30;1.00;;;;;;5145972;27;20563;-70
2023/10/23 11:10:22;;;;;;;8.00;5.93;;;20.20;1.00;;;;;;5127415;27;21054;-69
2023/10/23 11:12:51;;;;;;;6.27;5.50;;;20.10;1.00;;;;;;5125946;27;20452;-70
2023/10/23 11:15:18;;;;;;;6.50;5.70;;;20.00;1.00;;;;;;5126525;27;20463;-71
2023/10/23 11:17:45;;;;;;;7.33;4.83;;;19.50;1.00;;;;;;5136978;27;20500;-70
2023/10/23 11:20:15;;;;;;;4.87;4.47;;;19.20;1.00;;;;;;5146928;27;20471;-71
2023/10/23 11:22:45;;;;;;;4.87;4.47;;;19.00;1.00;;;;;;5129130;27;20555;-69
2023/10/23 11:25:14;;;;;;;6.10;5.27;;;18.90;1.00;;;;;;5129970;27;20461;-69
2023/10/23 11:27:41;;;;;;;5.93;5.33;;;18.80;1.00;;;;;;5127850;27;20495;-71
2023/10/23 11:30:09;;;;;;;6.17;5.57;;;19.10;1.00;;;;;;5129983;27;20460;-71
2023/10/23 11:32:39;;;;;;;6.50;5.17;;;19.40;1.00;;;;;;5130407;27;20467;-73
2023/10/23 11:35:08;;;;;;;7.50;6.67;;;20.10;1.00;;;;;;5133917;27;20466;-69
2023/10/23 11:37:39;;;;;;;7.10;4.80;;;20.80;1.00;;;;;;5127305;27;20516;-70
2023/10/23 11:40:09;;;;;;;6.13;5.37;;;21.20;1.00;;;;;;5148058;27;20515;-71
2023/10/23 11:42:53;;;;;;;5.57;5.07;;;21.40;1.00;;;;;;5128019;27;20563;-72
2023/10/23 11:45:20;;;;;;;5.77;4.90;;;21.90;1.00;;;;;;5128746;27;20463;-71
2023/10/23 11:47:51;;;;;;;5.43;4.90;;;21.90;1.00;;;;;;5140560;27;20468;-69
2023/10/23 11:50:21;;;;;;;10.27;7.50;;;21.80;1.00;;;;;;5124030;27;20459;-70
2023/10/23 11:52:50;;;;;;;5.07;4.67;;;21.50;1.00;;;;;;5145225;27;20526;-71
2023/10/23 11:55:19;;;;;;;5.00;4.50;;;21.10;1.00;;;;;;5146094;27;20524;-71
2023/10/23 11:57:48;;;;;;;7.17;5.00;;;21.00;1.00;;;;;;5150756;27;20818;-70
2023/10/23 12:00:16;;;;;;;5.30;4.83;;;21.40;1.00;;;;;;5135734;27;21561;-70
2023/10/23 12:02:44;;;;;;;6.07;5.53;;;21.00;1.00;;;;;;5132780;27;20453;-69
2023/10/23 12:05:13;;;;;;;6.57;5.40;;;20.80;1.00;;;;;;5142719;27;21004;-70
2023/10/23 12:07:41;;;;;;;5.13;4.40;;;21.50;1.00;;;;;;5145978;27;20460;-70
2023/10/23 12:10:10;;;;;;;5.50;4.93;;;23.70;1.00;;;;;;5131539;27;20479;-71
2023/10/23 12:12:39;;;;;;;5.10;4.30;;;24.60;1.00;;;;;;5137172;27;20786;-69
2023/10/23 12:15:07;;;;;;;4.30;4.00;;;24.70;1.00;;;;;;5133749;27;21335;-70
2023/10/23 12:17:34;;;;;;;6.23;5.00;;;24.80;1.00;;;;;;5130734;27;21665;-68
2023/10/23 12:20:06;;;;;;;4.47;4.07;;;24.10;1.00;;;;;;5130322;27;20479;-69
2023/10/23 12:22:37;;;;;;;5.37;4.53;;;23.30;1.00;;;;;;5129142;27;20469;-69
2023/10/23 12:25:05;;;;;;;5.33;4.93;;;22.40;1.00;;;;;;5131334;27;20486;-71
2023/10/23 12:27:32;;;;;;;5.70;4.97;;;21.80;1.00;;;;;;5130237;27;20473;-68
2023/10/23 12:30:01;;;;;;;5.07;4.40;;;21.50;1.00;;;;;;5126123;27;20455;-70
2023/10/23 12:32:28;;;;;;;5.80;5.40;;;21.30;1.00;;;;;;5129348;27;20917;-70
2023/10/23 12:34:57;;;;;;;5.60;4.93;;;20.90;1.00;;;;;;5126165;27;20455;-70
2023/10/23 12:37:26;;;;;;;5.97;5.37;;;21.50;1.00;;;;;;5130625;27;20470;-71
2023/10/23 12:39:53;;;;;;;5.50;5.00;;;23.00;1.00;;;;;;5132064;27;20981;-72
2023/10/23 12:42:20;;;;;;;5.20;4.70;;;23.10;1.00;;;;;;5129277;27;20560;-70
2023/10/23 12:44:47;;;;;;;10.10;9.13;;;22.40;1.00;;;;;;5131422;27;20448;-69
2023/10/23 12:47:16;;;;;;;6.43;5.93;;;21.90;1.00;;;;;;5130075;27;20508;-67
2023/10/23 12:49:43;;;;;;;5.67;5.17;;;21.70;1.00;;;;;;5127859;27;20455;-69
2023/10/23 12:52:10;;;;;;;5.43;5.00;;;21.60;1.00;;;;;;5146362;27;20550;-75
2023/10/23 12:54:37;;;;;;;5.50;5.10;;;21.30;1.00;;;;;;5139833;27;20528;-70
2023/10/23 12:57:05;;;;;;;6.30;5.80;;;20.80;1.00;;;;;;5130113;27;20563;-71
2023/10/23 12:59:32;;;;;;;6.37;5.87;;;20.40;1.00;;;;;;5130670;27;20981;-69